Sovereign — 9HUE9 — position and weather

sailwx.info

Track history (hours):
 
Tides and Currents Weather Stations Pressure Air Temp Water Temp Dewpoint Dewpoint Depression Visibility Wind Speed Wind Dir Waves Ship Positions

Sovereign

Last reported at 2018-Dec-12 04:05 UTC. Time now 2018-Dec-12 15:03 UTC.
Position S 23°17' W 042°26'.

Length 269 m; draft 7.8 m.

Type: Passenger vessel. MMSI: 249539000.

Date/timePositionNaut miles runAvg speedWind from/ knotsBaromVisibWave heightAir tempDewpointWater temp
2018-Dec-12 04:05S 23°17' W 042°26'2 7.2
2018-Dec-12 03:50S 23°17' W 042°28'4 7.2
2018-Dec-12 03:20S 23°17' W 042°31'2 7.2
2018-Dec-12 03:00S 23°18' W 042°34'4 7.1
2018-Dec-12 02:27S 23°18' W 042°38'12 7.3
2018-Dec-12 00:51S 23°12' W 042°50'3 7.9
2018-Dec-12 00:28S 23°10' W 042°52'4 7.8
2018-Dec-12 00:00S 23°08' W 042°55'4 8.0
2018-Dec-11 23:30S 23°06' W 042°59'4 8.3
2018-Dec-11 23:00S 23°03' W 043°02'4 8.7
2018-Dec-11 22:30S 23°00' W 043°06'4 8.3
2018-Dec-11 22:00S 22°57' W 043°08'4 7.5
2018-Dec-11 21:30S 22°53' W 043°10'1 2.0
2018-Dec-11 20:59S 22°54' W 043°11'0 0.0
2018-Dec-11 20:29S 22°54' W 043°11'0 0.0
2018-Dec-11 19:59S 22°54' W 043°11'0 0.0
2018-Dec-11 19:29S 22°54' W 043°11'0 0.0
2018-Dec-11 18:59S 22°54' W 043°11'0 0.0
2018-Dec-11 18:29S 22°54' W 043°11'0 0.0
2018-Dec-11 17:59S 22°54' W 043°11'0 0.0
2018-Dec-11 17:26S 22°54' W 043°11'0 0.0
2018-Dec-11 16:56S 22°54' W 043°11'0 0.0
2018-Dec-11 16:29S 22°54' W 043°11'0 0.0
2018-Dec-11 15:59S 22°54' W 043°11'0 0.0
2018-Dec-11 15:29S 22°54' W 043°11'0 0.0
2018-Dec-11 14:59S 22°54' W 043°11'0 0.0
2018-Dec-11 14:29S 22°54' W 043°11'0 0.0
2018-Dec-11 13:59S 22°54' W 043°11'0 0.0
2018-Dec-11 13:29S 22°54' W 043°11'0 0.0
2018-Dec-11 12:56S 22°54' W 043°11'0 0.0
2018-Dec-11 12:29S 22°54' W 043°11'0 0.0
2018-Dec-11 11:59S 22°54' W 043°11'0 0.8
2018-Dec-11 11:30S 22°53' W 043°11'4 8.0
2018-Dec-11 11:00S 22°57' W 043°08'612.0
2018-Dec-11 10:30S 23°03' W 043°10'713.7
2018-Dec-11 10:00S 23°09' W 043°12'713.9
2018-Dec-11 09:28S 23°13' W 043°18'715.2
2018-Dec-11 09:00S 23°16' W 043°25'815.1
2018-Dec-11 08:30S 23°19' W 043°33'714.7
2018-Dec-11 08:00S 23°22' W 043°40'1014.5
2018-Dec-11 07:20S 23°27' W 043°50'2316.7
2018-Dec-11 06:00S 23°36' W 044°12'11713.9 050 / 191019.0 24.024.025.6
2018-Dec-10 21:34S 24°04' W 046°16'114.0
2018-Dec-10 21:30S 24°04' W 046°17'5 6.2
2018-Dec-10 20:42S 23°59' W 046°18'2 0.2
2018-Dec-10 09:33S 23°60' W 046°20'0 8.3
2018-Dec-10 09:30S 24°00' W 046°20'511.0
2018-Dec-10 09:00S 24°05' W 046°23'816.2
2018-Dec-10 08:30S 24°13' W 046°23'917.3
2018-Dec-10 08:00S 24°22' W 046°23'917.2
2018-Dec-10 07:29S 24°31' W 046°23'117 2.4
2018-Dec-08 06:00S 23°48' W 044°24'5010.9 140 / 351015.0 22.022.024.0
2018-Dec-08 01:22S 23°20' W 043°38'410.9
2018-Dec-08 01:00S 23°18' W 043°35'711.0
2018-Dec-08 00:20S 23°14' W 043°28'410.7
2018-Dec-07 23:57S 23°11' W 043°25'510.7
2018-Dec-07 23:30S 23°09' W 043°20'510.6
2018-Dec-07 23:00S 23°06' W 043°16'510.9
2018-Dec-07 22:31S 23°03' W 043°11'510.6
2018-Dec-07 22:01S 22°58' W 043°09'4 8.9
2018-Dec-07 21:31S 22°53' W 043°10'1 2.8
2018-Dec-07 21:01S 22°54' W 043°11'0 0.0
2018-Dec-07 20:28S 22°54' W 043°11'0 0.0
2018-Dec-07 19:55S 22°54' W 043°11'0 0.0
2018-Dec-07 19:28S 22°54' W 043°11'0 0.0
2018-Dec-07 18:58S 22°54' W 043°11'0 0.0
2018-Dec-07 18:28S 22°54' W 043°11'0 0.0
2018-Dec-07 17:58S 22°54' W 043°11'0 0.0
2018-Dec-07 17:28S 22°54' W 043°11'0 0.0
2018-Dec-07 16:55S 22°54' W 043°11'0 0.0
2018-Dec-07 16:28S 22°54' W 043°11'0 0.0
2018-Dec-07 15:58S 22°54' W 043°11'0 0.0
2018-Dec-07 15:28S 22°54' W 043°11'0 0.0
2018-Dec-07 14:58S 22°54' W 043°11'0 0.0
2018-Dec-07 14:28S 22°54' W 043°11'0 0.0
2018-Dec-07 13:58S 22°54' W 043°11'0 0.0
2018-Dec-07 13:28S 22°54' W 043°11'0 0.0
2018-Dec-07 12:58S 22°54' W 043°11'0 0.0
2018-Dec-07 12:28S 22°54' W 043°11'0 0.2
2018-Dec-07 11:58S 22°54' W 043°11'1 2.5
2018-Dec-07 11:30S 22°53' W 043°10'4 7.8
2018-Dec-07 11:00S 22°57' W 043°08'511.0
2018-Dec-07 10:30S 23°02' W 043°10'714.4
2018-Dec-07 10:00S 23°09' W 043°12'714.0
2018-Dec-07 09:29S 23°13' W 043°20'714.8
2018-Dec-07 09:00S 23°16' W 043°26'714.7
2018-Dec-07 08:30S 23°20' W 043°33'714.9
2018-Dec-07 08:01S 23°23' W 043°41'815.2
2018-Dec-07 07:29S 23°26' W 043°48'1711.1
2018-Dec-07 06:00S 23°30' W 044°06'11816.1 360 / 131016.0 23.023.024.0
2018-Dec-06 22:41S 24°04' W 046°09'710.1
2018-Dec-06 22:02S 24°04' W 046°17'016.0
2018-Dec-06 22:00S 24°04' W 046°17'5 9.6
2018-Dec-06 21:30S 23°60' W 046°20'3 0.2
2018-Dec-06 08:57S 23°58' W 046°18'1 2.1
2018-Dec-06 08:30S 23°58' W 046°17'3 6.4
2018-Dec-06 08:00S 24°00' W 046°20'5 9.8
2018-Dec-06 07:30S 24°04' W 046°17'1016.3
2018-Dec-06 06:55S 24°03' W 046°06'13015.8
2018-Dec-05 22:42S 23°35' W 043°47'517.3
2018-Dec-05 22:23S 23°34' W 043°42'717.3
2018-Dec-05 22:00S 23°31' W 043°35'917.5
2018-Dec-05 21:30S 23°28' W 043°26'917.5
2018-Dec-05 21:00S 23°26' W 043°17'917.5
2018-Dec-05 20:29S 23°23' W 043°08'817.6
2018-Dec-05 20:00S 23°20' W 042°59'917.6
2018-Dec-05 19:30S 23°17' W 042°50'918.2
2018-Dec-05 18:59S 23°15' W 042°40'2518.6
2018-Dec-05 17:38S 23°08' W 042°14'33514.8
2018-Dec-04 19:00S 18°42' W 038°36'453 9.4 140 / 221009.0 25.025.027.0
2018-Dec-02 19:00S 11°24' W 036°36'15613.0 060 / 201012.0 29.029.028.8
2018-Dec-02 07:00S 09°24' W 034°54'   070 / 201012.0 26.026.028.0
Track history (hours):
 
Tides and Currents Weather Stations Pressure Air Temp Water Temp Dewpoint Dewpoint Depression Visibility Wind Speed Wind Dir Waves Ship Positions

Sovereign

Last reported at 2018-Dec-12 04:05 UTC. Time now 2018-Dec-12 15:03 UTC.
Position S 23°17' W 042°26'.

Length 269 m; draft 7.8 m.

Type: Passenger vessel. MMSI: 249539000.

Date/timePositionNaut miles runAvg speedWind from/ knotsBaromVisibWave heightAir tempDewpointWater temp
2018-Dec-12 04:05S 23°17' W 042°26'2 7.2
2018-Dec-12 03:50S 23°17' W 042°28'4 7.2
2018-Dec-12 03:20S 23°17' W 042°31'2 7.2
2018-Dec-12 03:00S 23°18' W 042°34'4 7.1
2018-Dec-12 02:27S 23°18' W 042°38'12 7.3
2018-Dec-12 00:51S 23°12' W 042°50'3 7.9
2018-Dec-12 00:28S 23°10' W 042°52'4 7.8
2018-Dec-12 00:00S 23°08' W 042°55'4 8.0
2018-Dec-11 23:30S 23°06' W 042°59'4 8.3
2018-Dec-11 23:00S 23°03' W 043°02'4 8.7
2018-Dec-11 22:30S 23°00' W 043°06'4 8.3
2018-Dec-11 22:00S 22°57' W 043°08'4 7.5
2018-Dec-11 21:30S 22°53' W 043°10'1 2.0
2018-Dec-11 20:59S 22°54' W 043°11'0 0.0
2018-Dec-11 20:29S 22°54' W 043°11'0 0.0
2018-Dec-11 19:59S 22°54' W 043°11'0 0.0
2018-Dec-11 19:29S 22°54' W 043°11'0 0.0
2018-Dec-11 18:59S 22°54' W 043°11'0 0.0
2018-Dec-11 18:29S 22°54' W 043°11'0 0.0
2018-Dec-11 17:59S 22°54' W 043°11'0 0.0
2018-Dec-11 17:26S 22°54' W 043°11'0 0.0
2018-Dec-11 16:56S 22°54' W 043°11'0 0.0
2018-Dec-11 16:29S 22°54' W 043°11'0 0.0
2018-Dec-11 15:59S 22°54' W 043°11'0 0.0
2018-Dec-11 15:29S 22°54' W 043°11'0 0.0
2018-Dec-11 14:59S 22°54' W 043°11'0 0.0
2018-Dec-11 14:29S 22°54' W 043°11'0 0.0
2018-Dec-11 13:59S 22°54' W 043°11'0 0.0
2018-Dec-11 13:29S 22°54' W 043°11'0 0.0
2018-Dec-11 12:56S 22°54' W 043°11'0 0.0
2018-Dec-11 12:29S 22°54' W 043°11'0 0.0
2018-Dec-11 11:59S 22°54' W 043°11'0 0.8
2018-Dec-11 11:30S 22°53' W 043°11'4 8.0
2018-Dec-11 11:00S 22°57' W 043°08'612.0
2018-Dec-11 10:30S 23°03' W 043°10'713.7
2018-Dec-11 10:00S 23°09' W 043°12'713.9
2018-Dec-11 09:28S 23°13' W 043°18'715.2
2018-Dec-11 09:00S 23°16' W 043°25'815.1
2018-Dec-11 08:30S 23°19' W 043°33'714.7
2018-Dec-11 08:00S 23°22' W 043°40'1014.5
2018-Dec-11 07:20S 23°27' W 043°50'2316.7
2018-Dec-11 06:00S 23°36' W 044°12'11713.9 050 / 191019.0 24.024.025.6
2018-Dec-10 21:34S 24°04' W 046°16'114.0
2018-Dec-10 21:30S 24°04' W 046°17'5 6.2
2018-Dec-10 20:42S 23°59' W 046°18'2 0.2
2018-Dec-10 09:33S 23°60' W 046°20'0 8.3
2018-Dec-10 09:30S 24°00' W 046°20'511.0
2018-Dec-10 09:00S 24°05' W 046°23'816.2
2018-Dec-10 08:30S 24°13' W 046°23'917.3
2018-Dec-10 08:00S 24°22' W 046°23'917.2
2018-Dec-10 07:29S 24°31' W 046°23'117 2.4
2018-Dec-08 06:00S 23°48' W 044°24'5010.9 140 / 351015.0 22.022.024.0
2018-Dec-08 01:22S 23°20' W 043°38'410.9
2018-Dec-08 01:00S 23°18' W 043°35'711.0
2018-Dec-08 00:20S 23°14' W 043°28'410.7
2018-Dec-07 23:57S 23°11' W 043°25'510.7
2018-Dec-07 23:30S 23°09' W 043°20'510.6
2018-Dec-07 23:00S 23°06' W 043°16'510.9
2018-Dec-07 22:31S 23°03' W 043°11'510.6
2018-Dec-07 22:01S 22°58' W 043°09'4 8.9
2018-Dec-07 21:31S 22°53' W 043°10'1 2.8
2018-Dec-07 21:01S 22°54' W 043°11'0 0.0
2018-Dec-07 20:28S 22°54' W 043°11'0 0.0
2018-Dec-07 19:55S 22°54' W 043°11'0 0.0
2018-Dec-07 19:28S 22°54' W 043°11'0 0.0
2018-Dec-07 18:58S 22°54' W 043°11'0 0.0
2018-Dec-07 18:28S 22°54' W 043°11'0 0.0
2018-Dec-07 17:58S 22°54' W 043°11'0 0.0
2018-Dec-07 17:28S 22°54' W 043°11'0 0.0
2018-Dec-07 16:55S 22°54' W 043°11'0 0.0
2018-Dec-07 16:28S 22°54' W 043°11'0 0.0
2018-Dec-07 15:58S 22°54' W 043°11'0 0.0
2018-Dec-07 15:28S 22°54' W 043°11'0 0.0
2018-Dec-07 14:58S 22°54' W 043°11'0 0.0
2018-Dec-07 14:28S 22°54' W 043°11'0 0.0
2018-Dec-07 13:58S 22°54' W 043°11'0 0.0
2018-Dec-07 13:28S 22°54' W 043°11'0 0.0
2018-Dec-07 12:58S 22°54' W 043°11'0 0.0
2018-Dec-07 12:28S 22°54' W 043°11'0 0.2
2018-Dec-07 11:58S 22°54' W 043°11'1 2.5
2018-Dec-07 11:30S 22°53' W 043°10'4 7.8
2018-Dec-07 11:00S 22°57' W 043°08'511.0
2018-Dec-07 10:30S 23°02' W 043°10'714.4
2018-Dec-07 10:00S 23°09' W 043°12'714.0
2018-Dec-07 09:29S 23°13' W 043°20'714.8
2018-Dec-07 09:00S 23°16' W 043°26'714.7
2018-Dec-07 08:30S 23°20' W 043°33'714.9
2018-Dec-07 08:01S 23°23' W 043°41'815.2
2018-Dec-07 07:29S 23°26' W 043°48'1711.1
2018-Dec-07 06:00S 23°30' W 044°06'11816.1 360 / 131016.0 23.023.024.0
2018-Dec-06 22:41S 24°04' W 046°09'710.1
2018-Dec-06 22:02S 24°04' W 046°17'016.0
2018-Dec-06 22:00S 24°04' W 046°17'5 9.6
2018-Dec-06 21:30S 23°60' W 046°20'3 0.2
2018-Dec-06 08:57S 23°58' W 046°18'1 2.1
2018-Dec-06 08:30S 23°58' W 046°17'3 6.4
2018-Dec-06 08:00S 24°00' W 046°20'5 9.8
2018-Dec-06 07:30S 24°04' W 046°17'1016.3
2018-Dec-06 06:55S 24°03' W 046°06'13015.8
2018-Dec-05 22:42S 23°35' W 043°47'517.3
2018-Dec-05 22:23S 23°34' W 043°42'717.3
2018-Dec-05 22:00S 23°31' W 043°35'917.5
2018-Dec-05 21:30S 23°28' W 043°26'917.5
2018-Dec-05 21:00S 23°26' W 043°17'917.5
2018-Dec-05 20:29S 23°23' W 043°08'817.6
2018-Dec-05 20:00S 23°20' W 042°59'917.6
2018-Dec-05 19:30S 23°17' W 042°50'918.2
2018-Dec-05 18:59S 23°15' W 042°40'2518.6
2018-Dec-05 17:38S 23°08' W 042°14'33514.8
2018-Dec-04 19:00S 18°42' W 038°36'453 9.4 140 / 221009.0 25.025.027.0
2018-Dec-02 19:00S 11°24' W 036°36'15613.0 060 / 201012.0 29.029.028.8
2018-Dec-02 07:00S 09°24' W 034°54'   070 / 201012.0 26.026.028.0

Dump ship's entire track history